createdAt,value
2023-03-11T00:00:47.600Z,6.18
2023-03-11T00:03:17.895Z,8.40
2023-03-11T00:05:46.587Z,7.97
2023-03-11T00:08:16.929Z,5.95
2023-03-11T00:10:46.638Z,8.63
2023-03-11T00:13:16.772Z,7.97
2023-03-11T00:15:47.050Z,6.85
2023-03-11T00:18:14.418Z,8.85
2023-03-11T00:20:44.734Z,10.50
2023-03-11T00:23:13.997Z,8.50
2023-03-11T00:25:44.158Z,8.27
2023-03-11T00:28:11.700Z,9.35
2023-03-11T00:30:41.716Z,7.18
2023-03-11T00:33:11.237Z,7.50
2023-03-11T00:35:40.186Z,8.80
2023-03-11T00:38:13.179Z,8.27
2023-03-11T00:40:40.162Z,6.45
2023-03-11T00:43:07.109Z,8.70
2023-03-11T00:45:36.350Z,8.45
2023-03-11T00:48:06.038Z,9.63
2023-03-11T00:50:35.778Z,9.83
2023-03-11T00:53:04.294Z,8.77
2023-03-11T00:55:33.713Z,12.20
2023-03-11T00:58:05.734Z,9.48
2023-03-11T01:00:41.540Z,9.53
2023-03-11T01:03:11.072Z,8.70
2023-03-11T01:05:38.138Z,9.80
2023-03-11T01:08:05.834Z,9.67
2023-03-11T01:10:34.829Z,9.32
2023-03-11T01:13:02.162Z,11.73
2023-03-11T01:15:33.342Z,9.23
2023-03-11T01:18:01.264Z,10.00
2023-03-11T01:20:30.101Z,10.15
2023-03-11T01:22:57.082Z,6.93
2023-03-11T01:25:25.547Z,10.77
2023-03-11T01:27:54.097Z,9.23
2023-03-11T01:30:24.774Z,10.68
2023-03-11T01:32:53.881Z,9.03
2023-03-11T01:35:24.335Z,10.60
2023-03-11T01:37:53.548Z,10.20
2023-03-11T01:40:26.876Z,10.30
2023-03-11T01:42:54.183Z,8.37
2023-03-11T01:46:08.119Z,10.55
2023-03-11T01:48:35.331Z,9.50
2023-03-11T01:51:02.461Z,8.60
2023-03-11T01:53:31.336Z,9.57
2023-03-11T01:55:58.529Z,10.93
2023-03-11T01:58:30.662Z,10.15
2023-03-11T02:01:00.331Z,9.55
2023-03-11T02:03:31.504Z,10.90
2023-03-11T02:06:03.830Z,8.32
2023-03-11T02:08:32.190Z,10.15
2023-03-11T02:11:03.459Z,11.40
2023-03-11T02:13:33.096Z,8.57
2023-03-11T02:16:00.680Z,8.97
2023-03-11T02:18:28.071Z,10.87
2023-03-11T02:21:05.534Z,9.33
2023-03-11T02:23:46.120Z,10.07
2023-03-11T02:26:23.881Z,9.30
2023-03-11T02:28:54.958Z,8.97
2023-03-11T02:31:23.759Z,10.73
2023-03-11T02:33:54.577Z,9.30
2023-03-11T02:36:38.213Z,9.30
2023-03-11T02:39:10.054Z,9.35
2023-03-11T02:41:46.615Z,8.73
2023-03-11T02:44:16.770Z,9.57
2023-03-11T02:46:46.243Z,6.97
2023-03-11T02:49:17.264Z,8.82
2023-03-11T02:51:44.331Z,10.60
2023-03-11T02:54:12.074Z,9.83
2023-03-11T02:56:39.318Z,10.33
2023-03-11T02:59:06.310Z,10.45
2023-03-11T03:01:35.889Z,6.53
2023-03-11T03:04:04.239Z,9.23
2023-03-11T03:06:33.386Z,9.20
2023-03-11T03:09:00.797Z,10.87
2023-03-11T03:11:27.878Z,7.60
2023-03-11T03:13:55.926Z,9.40
2023-03-11T03:16:24.269Z,12.23
2023-03-11T03:18:52.747Z,8.73
2023-03-11T03:21:19.728Z,8.97
2023-03-11T03:23:48.195Z,8.63
2023-03-11T03:26:16.138Z,8.27
2023-03-11T03:28:45.989Z,7.77
2023-03-11T03:31:13.747Z,8.53
2023-03-11T03:33:42.677Z,10.13
2023-03-11T03:36:13.838Z,7.63
2023-03-11T03:38:44.714Z,6.50
2023-03-11T03:41:14.636Z,7.67
2023-03-11T03:43:42.324Z,6.90
2023-03-11T03:46:10.413Z,6.73
2023-03-11T03:48:44.304Z,7.97
2023-03-11T03:51:14.854Z,7.43
2023-03-11T03:53:53.035Z,7.63
2023-03-11T03:56:20.271Z,8.50
2023-03-11T03:58:47.937Z,7.23
2023-03-11T04:01:15.043Z,8.00
2023-03-11T04:03:42.094Z,8.07
2023-03-11T04:06:19.320Z,7.73
2023-03-11T04:08:51.977Z,9.40
2023-03-11T04:11:20.110Z,6.73
2023-03-11T04:13:47.490Z,8.27
2023-03-11T04:16:19.048Z,9.43
2023-03-11T04:18:46.650Z,5.95
2023-03-11T04:21:16.269Z,7.60
2023-03-11T04:23:44.428Z,7.47
2023-03-11T04:26:14.102Z,6.63
2023-03-11T04:28:41.206Z,7.73
2023-03-11T04:31:08.931Z,9.27
2023-03-11T04:33:36.220Z,8.30
2023-03-11T04:36:06.961Z,7.33
2023-03-11T04:38:36.869Z,6.95
2023-03-11T04:41:06.555Z,8.40
2023-03-11T04:43:35.648Z,8.57
2023-03-11T04:46:03.085Z,7.07
2023-03-11T04:48:30.083Z,6.97
2023-03-11T04:50:57.466Z,9.00
2023-03-11T04:53:24.886Z,6.77
2023-03-11T04:55:53.515Z,6.60
2023-03-11T04:58:20.905Z,8.20
2023-03-11T05:00:48.287Z,7.33
2023-03-11T05:03:16.155Z,7.57
2023-03-11T05:05:43.315Z,8.47
2023-03-11T05:08:10.850Z,7.20
2023-03-11T05:10:40.424Z,7.50
2023-03-11T05:13:09.018Z,6.40
2023-03-11T05:15:38.120Z,6.83
2023-03-11T05:18:06.528Z,7.07
2023-03-11T05:20:36.086Z,6.93
2023-03-11T05:23:04.149Z,8.63
2023-03-11T05:25:33.771Z,7.73
2023-03-11T05:28:01.941Z,6.70
2023-03-11T05:30:30.650Z,7.73
2023-03-11T05:32:58.341Z,7.40
2023-03-11T05:35:25.680Z,7.30
2023-03-11T05:37:53.148Z,6.13
2023-03-11T05:40:20.988Z,6.27
2023-03-11T05:45:43.313Z,6.43
2023-03-11T05:48:10.861Z,6.27
2023-03-11T05:50:38.665Z,8.40
2023-03-11T05:53:06.470Z,4.53
2023-03-11T05:55:33.666Z,6.37
2023-03-11T05:58:01.354Z,8.27
2023-03-11T06:00:28.415Z,6.97
2023-03-11T06:02:59.295Z,6.80
2023-03-11T06:05:26.835Z,5.73
2023-03-11T06:07:55.271Z,8.33
2023-03-11T06:10:23.236Z,6.60
2023-03-11T06:12:50.070Z,8.47
2023-03-11T06:15:22.831Z,7.93
2023-03-11T06:17:50.125Z,7.53
2023-03-11T06:20:19.812Z,7.50
2023-03-11T06:22:49.121Z,4.80
2023-03-11T06:25:16.843Z,7.00
2023-03-11T06:27:50.069Z,6.43
2023-03-11T06:30:17.583Z,6.32
2023-03-11T06:32:53.366Z,5.93
2023-03-11T06:35:21.821Z,7.33
2023-03-11T06:37:48.798Z,7.67
2023-03-11T06:40:15.897Z,7.80
2023-03-11T06:45:39.650Z,7.10
2023-03-11T06:48:07.134Z,6.43
2023-03-11T06:50:36.195Z,7.10
2023-03-11T06:53:03.847Z,7.27
2023-03-11T06:55:30.778Z,6.90
2023-03-11T06:57:58.496Z,4.00
2023-03-11T07:00:26.394Z,5.07
2023-03-11T07:02:57.609Z,6.50
2023-03-11T07:05:26.419Z,7.00
2023-03-11T07:08:00.807Z,6.10
2023-03-11T07:10:27.934Z,6.30
2023-03-11T07:12:55.005Z,7.87
2023-03-11T07:15:22.563Z,8.60
2023-03-11T07:17:49.530Z,7.20
2023-03-11T07:20:18.035Z,6.20
2023-03-11T07:22:44.916Z,6.23
2023-03-11T07:25:14.168Z,9.27
2023-03-11T07:27:41.059Z,7.07
2023-03-11T07:30:10.290Z,7.10
2023-03-11T07:32:37.471Z,5.97
2023-03-11T07:35:05.781Z,6.83
2023-03-11T07:37:33.081Z,6.37
2023-03-11T07:40:00.228Z,8.07
2023-03-11T07:42:28.546Z,4.43
2023-03-11T07:44:55.847Z,6.90
2023-03-11T07:47:22.936Z,6.80
2023-03-11T07:49:50.181Z,6.00
2023-03-11T07:52:17.166Z,7.17
2023-03-11T07:54:44.316Z,7.60
2023-03-11T07:57:11.347Z,5.03
2023-03-11T07:59:39.821Z,7.07
2023-03-11T08:02:07.260Z,6.77
2023-03-11T08:04:34.498Z,6.43
2023-03-11T08:07:01.609Z,7.50
2023-03-11T08:09:28.772Z,7.97
2023-03-11T08:11:55.863Z,6.87
2023-03-11T08:14:22.756Z,7.20
2023-03-11T08:16:51.149Z,8.43
2023-03-11T08:19:18.273Z,10.30
2023-03-11T08:21:45.152Z,9.93
2023-03-11T08:24:14.053Z,7.17
2023-03-11T08:26:42.048Z,11.30
2023-03-11T08:29:09.028Z,16.90
2023-03-11T08:31:36.500Z,12.77
2023-03-11T08:34:08.916Z,10.93
2023-03-11T08:36:36.455Z,15.50
2023-03-11T08:39:03.684Z,21.25
2023-03-11T08:41:30.687Z,22.00
2023-03-11T08:43:57.887Z,22.15
2023-03-11T08:46:28.473Z,20.75
2023-03-11T08:48:58.684Z,9.20
2023-03-11T08:51:32.336Z,6.03
2023-03-11T08:54:00.834Z,6.05
2023-03-11T08:56:28.258Z,8.32
2023-03-11T08:58:55.150Z,11.55
2023-03-11T09:01:22.345Z,8.50
2023-03-11T09:03:49.789Z,6.40
2023-03-11T09:06:18.438Z,11.30
2023-03-11T09:08:48.757Z,23.17
2023-03-11T09:11:17.727Z,24.77
2023-03-11T09:13:45.422Z,11.25
2023-03-11T09:16:15.189Z,17.20
2023-03-11T09:18:42.505Z,22.90
2023-03-11T09:21:10.421Z,17.05
2023-03-11T09:23:37.708Z,13.73
2023-03-11T09:26:06.383Z,33.60
2023-03-11T09:28:33.538Z,20.58
2023-03-11T09:31:00.703Z,12.32
2023-03-11T09:33:27.843Z,21.85
2023-03-11T09:35:54.736Z,15.77
2023-03-11T09:38:21.830Z,30.70
2023-03-11T09:40:59.631Z,31.45
2023-03-11T09:43:47.597Z,12.90
2023-03-11T09:46:57.157Z,7.18
2023-03-11T09:49:44.800Z,8.02
2023-03-11T09:52:14.432Z,5.20
2023-03-11T09:54:46.635Z,6.03
2023-03-11T09:57:21.368Z,7.07
2023-03-11T09:59:50.904Z,4.25
2023-03-11T10:02:21.526Z,3.13
2023-03-11T10:04:56.185Z,3.17
2023-03-11T10:07:28.785Z,3.35
2023-03-11T10:09:57.843Z,2.33
2023-03-11T10:12:49.927Z,5.82
2023-03-11T10:15:27.435Z,3.65
2023-03-11T10:18:18.247Z,2.88
2023-03-11T10:20:58.558Z,2.55
2023-03-11T10:23:37.324Z,3.90
2023-03-11T10:26:13.521Z,4.95
2023-03-11T10:28:46.776Z,2.83
2023-03-11T10:31:23.953Z,3.33
2023-03-11T10:33:56.349Z,4.00
2023-03-11T10:36:29.312Z,3.45
2023-03-11T10:38:57.223Z,2.63
2023-03-11T10:41:31.147Z,2.60
2023-03-11T10:44:06.119Z,2.60
2023-03-11T10:46:34.582Z,3.58
2023-03-11T10:49:01.469Z,4.57
2023-03-11T10:51:34.595Z,3.80
2023-03-11T10:54:03.538Z,3.72
2023-03-11T10:56:33.578Z,3.08
2023-03-11T10:59:02.219Z,3.45
2023-03-11T11:01:30.307Z,4.78
2023-03-11T11:04:02.242Z,3.90
2023-03-11T11:06:32.091Z,2.40
2023-03-11T11:09:14.641Z,2.97
2023-03-11T11:14:12.715Z,3.35
2023-03-11T11:19:33.967Z,3.58
2023-03-11T11:22:04.892Z,5.72
2023-03-11T11:24:32.492Z,2.72
2023-03-11T11:27:16.077Z,8.68
2023-03-11T11:29:43.790Z,3.40
2023-03-11T11:32:24.156Z,5.32
2023-03-11T11:35:00.216Z,2.38
2023-03-11T11:37:30.611Z,2.65
2023-03-11T11:40:04.036Z,3.10
2023-03-11T11:42:31.461Z,2.10
2023-03-11T11:45:10.515Z,1.80
2023-03-11T11:47:43.292Z,3.05
2023-03-11T11:50:20.565Z,3.08
2023-03-11T11:52:56.615Z,1.60
2023-03-11T11:55:28.215Z,2.90
2023-03-11T11:57:55.106Z,2.60
2023-03-11T12:00:28.354Z,2.67
2023-03-11T12:03:18.677Z,2.67
2023-03-11T12:05:58.113Z,3.00
2023-03-11T12:08:33.861Z,2.53
2023-03-11T12:11:06.393Z,2.10
2023-03-11T12:13:58.468Z,3.15
2023-03-11T12:16:41.097Z,2.60
2023-03-11T12:19:29.041Z,4.25
2023-03-11T12:22:41.150Z,3.92
2023-03-11T12:25:36.984Z,3.27
2023-03-11T12:28:23.380Z,3.05
2023-03-11T12:30:53.725Z,3.08
2023-03-11T12:33:31.621Z,2.05
2023-03-11T12:36:01.221Z,3.58
2023-03-11T12:38:33.085Z,3.25
2023-03-11T12:41:06.526Z,2.75
2023-03-11T12:44:04.663Z,1.60
2023-03-11T12:47:17.535Z,3.30
2023-03-11T12:52:51.921Z,3.28
2023-03-11T12:55:39.862Z,1.25
2023-03-11T12:59:00.345Z,3.08
2023-03-11T13:01:53.629Z,2.53
2023-03-11T13:04:47.744Z,1.20
2023-03-11T13:07:41.357Z,0.90
2023-03-11T13:10:17.113Z,2.22
2023-03-11T13:12:47.921Z,2.60
2023-03-11T13:15:37.371Z,5.82
2023-03-11T13:18:18.048Z,3.75
2023-03-11T13:20:52.593Z,0.85
2023-03-11T13:23:42.546Z,1.52
2023-03-11T13:26:40.010Z,2.05
2023-03-11T13:29:46.094Z,2.08
2023-03-11T13:32:43.552Z,0.70
2023-03-11T13:35:31.055Z,2.63
2023-03-11T13:38:28.740Z,2.67
2023-03-11T13:40:55.672Z,1.98
2023-03-11T13:43:25.395Z,2.20
2023-03-11T13:46:00.382Z,4.07
2023-03-11T13:48:31.934Z,2.05
2023-03-11T13:51:03.970Z,2.55
2023-03-11T13:53:37.606Z,2.25
2023-03-11T13:56:05.444Z,1.05
2023-03-11T13:58:32.594Z,1.23
2023-03-11T14:01:02.605Z,4.05
2023-03-11T14:03:42.835Z,3.65
2023-03-11T14:06:18.011Z,2.25
2023-03-11T14:08:53.720Z,3.10
2023-03-11T14:11:26.492Z,0.73
2023-03-11T14:13:53.673Z,1.35
2023-03-11T14:16:27.889Z,0.30
2023-03-11T14:19:03.816Z,1.00
2023-03-11T14:21:31.209Z,1.55
2023-03-11T14:23:58.528Z,2.65
2023-03-11T14:26:29.911Z,1.45
2023-03-11T14:29:01.265Z,1.75
2023-03-11T14:31:35.331Z,2.08
2023-03-11T14:34:04.786Z,4.68
2023-03-11T14:36:40.984Z,3.17
2023-03-11T14:39:29.524Z,0.40
2023-03-11T14:42:19.067Z,2.17
2023-03-11T14:44:51.350Z,1.65
2023-03-11T14:47:28.153Z,1.77
2023-03-11T14:49:55.846Z,1.55
2023-03-11T14:52:34.668Z,1.30
2023-03-11T14:55:03.611Z,1.60
2023-03-11T14:57:41.365Z,1.77
2023-03-11T15:00:19.211Z,0.95
2023-03-11T15:03:01.776Z,2.60
2023-03-11T15:05:38.742Z,2.95
2023-03-11T15:08:06.944Z,2.42
2023-03-11T15:10:34.352Z,3.92
2023-03-11T15:13:09.299Z,2.95
2023-03-11T15:15:36.863Z,4.82
2023-03-11T15:18:23.142Z,1.83
2023-03-11T15:21:05.240Z,2.08
2023-03-11T15:23:35.350Z,2.03
2023-03-11T15:26:03.576Z,2.85
2023-03-11T15:28:33.486Z,1.50
2023-03-11T15:31:27.852Z,1.08
2023-03-11T15:33:56.127Z,1.70
2023-03-11T15:36:31.832Z,3.47
2023-03-11T15:39:18.038Z,2.13
2023-03-11T15:41:48.585Z,1.13
2023-03-11T15:44:27.966Z,1.52
2023-03-11T15:46:55.510Z,1.02
2023-03-11T15:49:23.860Z,1.67
2023-03-11T15:51:50.907Z,1.52
2023-03-11T15:54:18.063Z,3.45
2023-03-11T15:56:46.793Z,2.08
2023-03-11T15:59:17.110Z,1.75
2023-03-11T16:01:44.648Z,2.08
2023-03-11T16:04:15.143Z,3.33
2023-03-11T16:06:45.099Z,6.88
2023-03-11T16:09:14.681Z,3.47
2023-03-11T16:11:43.813Z,1.85
2023-03-11T16:14:18.128Z,2.15
2023-03-11T16:16:45.443Z,1.55
2023-03-11T16:19:13.424Z,1.48
2023-03-11T16:21:45.361Z,2.53
2023-03-11T16:24:20.471Z,1.13
2023-03-11T16:26:47.442Z,2.63
2023-03-11T16:29:19.427Z,2.63
2023-03-11T16:31:47.352Z,4.53
2023-03-11T16:34:14.448Z,3.20
2023-03-11T16:36:42.647Z,1.55
2023-03-11T16:39:09.800Z,2.20
2023-03-11T16:41:42.744Z,2.22
2023-03-11T16:44:10.306Z,3.47
2023-03-11T16:46:37.672Z,1.05
2023-03-11T16:49:04.957Z,1.73
2023-03-11T16:51:32.011Z,4.68
2023-03-11T16:54:00.833Z,3.90
2023-03-11T16:56:28.068Z,4.60
2023-03-11T16:58:55.138Z,3.03
2023-03-11T17:01:22.823Z,4.47
2023-03-11T17:03:50.526Z,3.75
2023-03-11T17:06:19.391Z,2.72
2023-03-11T17:08:46.739Z,3.53
2023-03-11T17:11:22.057Z,2.33
2023-03-11T17:13:50.823Z,2.72
2023-03-11T17:16:17.825Z,4.63
2023-03-11T17:18:45.017Z,2.85
2023-03-11T17:21:15.198Z,3.97
2023-03-11T17:23:42.629Z,3.35
2023-03-11T17:26:11.930Z,2.08
2023-03-11T17:28:40.523Z,2.67
2023-03-11T17:31:12.029Z,4.22
2023-03-11T17:33:39.258Z,2.65
2023-03-11T17:36:08.850Z,2.33
2023-03-11T17:38:38.904Z,1.95
2023-03-11T17:41:11.562Z,3.03
2023-03-11T17:43:40.863Z,4.82
2023-03-11T17:46:09.167Z,2.47
2023-03-11T17:48:36.156Z,3.38
2023-03-11T17:51:06.191Z,2.65
2023-03-11T17:53:33.462Z,4.10
2023-03-11T17:56:00.358Z,4.32
2023-03-11T17:58:27.395Z,2.03
2023-03-11T18:00:56.105Z,1.63
2023-03-11T18:03:23.122Z,3.53
2023-03-11T18:06:01.445Z,4.43
2023-03-11T18:08:29.401Z,4.35
2023-03-11T18:11:01.293Z,3.72
2023-03-11T18:13:28.104Z,4.47
2023-03-11T18:16:01.821Z,1.10
2023-03-11T18:18:30.535Z,5.72
2023-03-11T18:21:01.323Z,5.40
2023-03-11T18:23:28.339Z,3.13
2023-03-11T18:25:55.423Z,4.45
2023-03-11T18:28:22.338Z,4.55
2023-03-11T18:30:49.556Z,4.10
2023-03-11T18:33:17.929Z,2.15
2023-03-11T18:35:44.705Z,3.47
2023-03-11T18:38:12.756Z,4.10
2023-03-11T18:40:39.838Z,6.60
2023-03-11T18:43:06.860Z,2.13
2023-03-11T18:45:33.938Z,6.40
2023-03-11T18:48:00.851Z,6.90
2023-03-11T18:50:30.047Z,2.75
2023-03-11T18:52:57.059Z,5.95
2023-03-11T18:55:24.183Z,1.83
2023-03-11T18:57:51.802Z,7.13
2023-03-11T19:00:19.780Z,4.53
2023-03-11T19:02:51.260Z,3.10
2023-03-11T19:05:18.396Z,2.80
2023-03-11T19:07:46.645Z,6.55
2023-03-11T19:10:13.791Z,2.90
2023-03-11T19:12:41.429Z,3.30
2023-03-11T19:15:11.219Z,3.10
2023-03-11T19:17:38.408Z,10.05
2023-03-11T19:20:06.869Z,2.67
2023-03-11T19:22:33.780Z,3.53
2023-03-11T19:25:02.060Z,3.67
2023-03-11T19:27:28.921Z,4.70
2023-03-11T19:29:55.764Z,3.83
2023-03-11T19:32:22.948Z,4.35
2023-03-11T19:34:49.816Z,5.68
2023-03-11T19:37:16.990Z,4.50
2023-03-11T19:39:43.976Z,3.53
2023-03-11T19:42:12.215Z,2.78
2023-03-11T19:44:39.240Z,2.05
2023-03-11T19:47:06.262Z,5.03
2023-03-11T19:49:33.388Z,1.30
2023-03-11T19:52:00.252Z,3.50
2023-03-11T19:54:27.159Z,2.85
2023-03-11T19:56:54.125Z,4.13
2023-03-11T19:59:22.303Z,1.58
2023-03-11T20:01:49.314Z,1.55
2023-03-11T20:04:16.572Z,1.75
2023-03-11T20:06:44.398Z,1.80
2023-03-11T20:09:12.010Z,3.35
2023-03-11T20:11:39.639Z,1.58
2023-03-11T20:14:07.258Z,1.83
2023-03-11T20:16:36.991Z,3.25
2023-03-11T20:19:04.258Z,2.55
2023-03-11T20:21:31.355Z,3.08
2023-03-11T20:23:58.462Z,1.55
2023-03-11T20:26:25.588Z,2.33
2023-03-11T20:28:56.034Z,3.13
2023-03-11T20:31:26.003Z,1.95
2023-03-11T20:33:55.443Z,5.20
2023-03-11T20:36:26.749Z,4.13
2023-03-11T20:38:55.237Z,5.57
2023-03-11T20:41:24.181Z,3.42
2023-03-11T20:43:54.689Z,7.25
2023-03-11T20:46:21.944Z,7.20
2023-03-11T20:48:48.807Z,8.25
2023-03-11T20:51:19.161Z,5.18
2023-03-11T20:53:46.945Z,5.22
2023-03-11T20:56:17.755Z,3.22
2023-03-11T20:58:45.101Z,4.85
2023-03-11T21:01:14.440Z,4.20
2023-03-11T21:03:41.705Z,2.67
2023-03-11T21:06:20.272Z,2.78
2023-03-11T21:08:48.551Z,3.15
2023-03-11T21:11:17.155Z,4.85
2023-03-11T21:13:44.545Z,3.53
2023-03-11T21:16:12.493Z,3.08
2023-03-11T21:18:42.444Z,2.75
2023-03-11T21:21:09.958Z,3.45
2023-03-11T21:23:39.022Z,2.88
2023-03-11T21:26:06.738Z,3.78
2023-03-11T21:28:34.813Z,6.40
2023-03-11T21:31:05.391Z,3.83
2023-03-11T21:33:32.674Z,2.28
2023-03-11T21:36:01.240Z,2.70
2023-03-11T21:38:29.133Z,5.00
2023-03-11T21:41:07.922Z,2.85
2023-03-11T21:43:36.077Z,3.70
2023-03-11T21:46:03.894Z,3.95
2023-03-11T21:48:31.679Z,2.95
2023-03-11T21:50:58.730Z,5.97
2023-03-11T21:53:26.260Z,3.67
2023-03-11T21:55:53.941Z,5.13
2023-03-11T21:58:22.691Z,3.03
2023-03-11T22:00:49.784Z,7.13
2023-03-11T22:03:17.191Z,4.00
2023-03-11T22:05:44.340Z,6.00
2023-03-11T22:08:11.311Z,1.60
2023-03-11T22:10:38.448Z,2.80
2023-03-11T22:13:05.571Z,3.78
2023-03-11T22:15:34.106Z,3.03
2023-03-11T22:18:01.022Z,4.70
2023-03-11T22:20:28.088Z,4.13
2023-03-11T22:22:55.190Z,5.65
2023-03-11T22:25:22.024Z,4.60
2023-03-11T22:27:48.839Z,5.00
2023-03-11T22:30:15.943Z,5.38
2023-03-11T22:32:44.351Z,5.00
2023-03-11T22:35:11.244Z,4.15
2023-03-11T22:37:38.085Z,4.22
2023-03-11T22:40:07.196Z,6.03
2023-03-11T22:42:34.403Z,3.15
2023-03-11T22:45:26.836Z,6.68
2023-03-11T22:50:46.070Z,4.07
2023-03-11T22:53:13.844Z,3.00
2023-03-11T22:55:41.608Z,8.02
2023-03-11T22:58:08.608Z,5.03
2023-03-11T23:00:36.235Z,3.67
2023-03-11T23:03:05.328Z,3.97
2023-03-11T23:05:32.731Z,5.40
2023-03-11T23:07:59.550Z,5.78
2023-03-11T23:10:26.563Z,3.08
2023-03-11T23:12:53.453Z,2.10
2023-03-11T23:15:20.387Z,1.98
2023-03-11T23:17:47.200Z,7.00
2023-03-11T23:20:17.083Z,1.35
2023-03-11T23:22:44.223Z,3.92
2023-03-11T23:25:15.255Z,3.17
2023-03-11T23:27:43.892Z,4.80
2023-03-11T23:30:13.279Z,2.78
2023-03-11T23:32:40.195Z,3.95
2023-03-11T23:35:08.283Z,3.40
2023-03-11T23:37:36.714Z,4.15
2023-03-11T23:40:04.439Z,1.90
2023-03-11T23:42:32.741Z,2.67
2023-03-11T23:44:59.887Z,2.45
2023-03-11T23:47:27.222Z,2.30
2023-03-11T23:49:54.083Z,2.90
2023-03-11T23:52:21.041Z,3.88
2023-03-11T23:54:49.443Z,1.95
2023-03-11T23:57:17.003Z,3.17
2023-03-11T23:59:44.618Z,2.58
